createdAt,value
2018-12-01T00:00:23.027Z,97.20
2018-12-01T00:02:50.831Z,97.20
2018-12-01T00:05:35.609Z,97.20
2018-12-01T00:08:03.695Z,97.30
2018-12-01T00:10:31.793Z,97.30
2018-12-01T00:12:59.835Z,97.20
2018-12-01T00:15:29.106Z,97.40
2018-12-01T00:17:57.402Z,97.40
2018-12-01T00:20:26.719Z,97.40
2018-12-01T00:22:54.819Z,97.50
2018-12-01T00:25:22.911Z,97.70
2018-12-01T00:27:50.972Z,97.80
2018-12-01T00:30:19.820Z,97.80
2018-12-01T00:32:49.340Z,98.00
2018-12-01T00:35:17.449Z,98.00
2018-12-01T00:37:45.508Z,97.90
2018-12-01T00:40:17.574Z,97.70
2018-12-01T00:42:45.651Z,97.70
2018-12-01T00:45:14.638Z,97.60
2018-12-01T00:47:43.606Z,97.40
2018-12-01T00:50:12.577Z,97.20
2018-12-01T00:52:40.702Z,97.00
2018-12-01T00:55:11.751Z,96.80
2018-12-01T00:57:39.842Z,96.70
2018-12-01T01:00:15.918Z,96.70
2018-12-01T01:02:48.494Z,96.80
2018-12-01T01:05:16.519Z,96.30
2018-12-01T01:07:45.008Z,96.80
2018-12-01T01:10:13.084Z,97.00
2018-12-01T01:12:41.210Z,97.30
2018-12-01T01:15:09.362Z,97.40
2018-12-01T01:17:37.427Z,97.40
2018-12-01T01:20:12.667Z,97.10
2018-12-01T01:22:40.837Z,97.10
2018-12-01T01:25:09.913Z,96.90
2018-12-01T01:27:37.957Z,96.40
2018-12-01T01:30:13.515Z,96.60
2018-12-01T01:32:41.622Z,96.20
2018-12-01T01:35:09.671Z,96.20
2018-12-01T01:37:37.783Z,96.40
2018-12-01T01:40:09.017Z,97.10
2018-12-01T01:42:37.166Z,96.80
2018-12-01T01:45:23.476Z,96.90
2018-12-01T01:47:51.584Z,96.90
2018-12-01T01:50:20.641Z,96.70
2018-12-01T01:52:48.841Z,96.90
2018-12-01T01:55:17.003Z,97.10
2018-12-01T01:57:45.158Z,97.20
2018-12-01T02:00:17.044Z,97.30
2018-12-01T02:02:47.364Z,97.30
2018-12-01T02:05:16.108Z,97.10
2018-12-01T02:07:44.226Z,97.20
2018-12-01T02:10:13.330Z,96.90
2018-12-01T02:12:41.433Z,96.80
2018-12-01T02:15:10.556Z,97.00
2018-12-01T02:17:38.645Z,96.80
2018-12-01T02:20:10.111Z,96.80
2018-12-01T02:22:38.194Z,96.60
2018-12-01T02:25:07.437Z,96.70
2018-12-01T02:27:35.620Z,97.00
2018-12-01T02:30:05.019Z,97.30
2018-12-01T02:32:33.130Z,97.00
2018-12-01T02:35:01.260Z,96.80
2018-12-01T02:37:29.291Z,96.70
2018-12-01T02:39:57.339Z,97.10
2018-12-01T02:42:25.474Z,97.20
2018-12-01T02:45:05.358Z,97.10
2018-12-01T02:47:33.973Z,97.10
2018-12-01T02:50:02.634Z,96.90
2018-12-01T02:52:30.618Z,97.00
2018-12-01T02:54:58.677Z,97.10
2018-12-01T02:57:26.737Z,97.10
2018-12-01T02:59:54.804Z,97.30
2018-12-01T03:02:24.125Z,97.60
2018-12-01T03:04:53.014Z,97.40
2018-12-01T03:07:21.133Z,97.70
2018-12-01T03:09:49.142Z,97.90
2018-12-01T03:12:17.203Z,97.90
2018-12-01T03:14:45.378Z,97.90
2018-12-01T03:17:13.445Z,98.00
2018-12-01T03:19:41.548Z,98.00
2018-12-01T03:22:09.681Z,98.00
2018-12-01T03:24:37.765Z,98.00
2018-12-01T03:27:05.918Z,98.10
2018-12-01T03:29:33.964Z,98.00
2018-12-01T03:32:02.046Z,98.00
2018-12-01T03:34:30.232Z,97.90
2018-12-01T03:36:58.297Z,98.20
2018-12-01T03:39:26.440Z,98.10
2018-12-01T03:41:54.479Z,98.10
2018-12-01T03:44:22.629Z,98.20
2018-12-01T03:46:50.683Z,98.10
2018-12-01T03:49:18.725Z,97.90
2018-12-01T03:51:46.855Z,97.80
2018-12-01T03:54:14.857Z,97.50
2018-12-01T03:56:42.942Z,97.40
2018-12-01T03:59:11.074Z,97.20
2018-12-01T04:01:39.156Z,97.00
2018-12-01T04:04:07.183Z,97.10
2018-12-01T04:06:35.256Z,97.30
2018-12-01T04:09:10.288Z,97.30
2018-12-01T04:11:38.378Z,97.20
2018-12-01T04:14:06.453Z,97.10
2018-12-01T04:16:34.480Z,96.60
2018-12-01T04:19:02.546Z,96.20
2018-12-01T04:21:30.641Z,96.20
2018-12-01T04:23:58.684Z,95.90
2018-12-01T04:26:26.758Z,96.00
2018-12-01T04:28:54.757Z,95.80
2018-12-01T04:31:22.784Z,95.40
2018-12-01T04:33:51.490Z,95.30
2018-12-01T04:36:19.637Z,95.30
2018-12-01T04:38:47.742Z,95.00
2018-12-01T04:41:15.871Z,95.00
2018-12-01T04:43:43.969Z,95.00
2018-12-01T04:46:12.002Z,95.20
2018-12-01T04:48:40.124Z,94.80
2018-12-01T04:51:08.173Z,95.00
2018-12-01T04:53:36.238Z,95.00
2018-12-01T04:56:04.296Z,95.10
2018-12-01T04:58:32.393Z,94.70
2018-12-01T05:01:00.455Z,95.10
2018-12-01T05:03:28.510Z,95.30
2018-12-01T05:05:56.561Z,95.60
2018-12-01T05:08:31.178Z,95.10
2018-12-01T05:10:59.236Z,95.50
2018-12-01T05:13:27.361Z,95.00
2018-12-01T05:15:55.454Z,94.90
2018-12-01T05:18:23.494Z,95.40
2018-12-01T05:20:51.476Z,95.10
2018-12-01T05:23:19.511Z,95.50
2018-12-01T05:25:47.564Z,95.10
2018-12-01T05:28:15.664Z,95.00
2018-12-01T05:30:43.744Z,94.80
2018-12-01T05:33:11.758Z,94.60
2018-12-01T05:35:39.844Z,94.40
2018-12-01T05:38:07.977Z,94.70
2018-12-01T05:40:36.040Z,94.60
2018-12-01T05:43:04.563Z,94.40
2018-12-01T05:45:32.682Z,94.60
2018-12-01T05:48:00.834Z,94.30
2018-12-01T05:50:28.816Z,94.40
2018-12-01T05:52:57.320Z,94.10
2018-12-01T05:55:25.543Z,94.20
2018-12-01T05:57:53.644Z,94.20
2018-12-01T06:00:21.928Z,94.10
2018-12-01T06:02:49.995Z,93.40
2018-12-01T06:05:18.088Z,93.50
2018-12-01T06:07:46.167Z,93.80
2018-12-01T06:10:15.383Z,93.60
2018-12-01T06:12:43.652Z,93.60
2018-12-01T06:15:12.310Z,94.00
2018-12-01T06:17:39.977Z,94.00
2018-12-01T06:20:23.565Z,94.70
2018-12-01T06:22:51.249Z,94.60
2018-12-01T06:25:20.060Z,94.20
2018-12-01T06:27:47.716Z,93.90
2018-12-01T06:30:17.964Z,94.30
2018-12-01T06:32:46.771Z,94.50
2018-12-01T06:35:17.454Z,94.00
2018-12-01T06:37:45.123Z,94.20
2018-12-01T06:40:14.747Z,94.00
2018-12-01T06:42:42.534Z,93.80
2018-12-01T06:45:14.126Z,94.20
2018-12-01T06:47:41.753Z,94.10
2018-12-01T06:50:14.372Z,93.90
2018-12-01T06:52:41.941Z,94.20
2018-12-01T06:55:10.683Z,94.50
2018-12-01T06:57:38.505Z,95.80
2018-12-01T07:00:10.321Z,96.30
2018-12-01T07:02:40.198Z,96.90
2018-12-01T07:05:08.955Z,96.50
2018-12-01T07:07:36.546Z,96.00
2018-12-01T07:10:07.003Z,95.40
2018-12-01T07:12:34.893Z,95.60
2018-12-01T07:15:02.514Z,95.20
2018-12-01T07:17:30.121Z,95.40
2018-12-01T07:19:58.369Z,95.70
2018-12-01T07:22:26.852Z,95.60
2018-12-01T07:24:58.628Z,95.80
2018-12-01T07:27:26.606Z,95.10
2018-12-01T07:29:58.057Z,95.10
2018-12-01T07:32:22.630Z,95.30
2018-12-01T07:34:50.695Z,95.10
2018-12-01T07:37:18.202Z,94.80
2018-12-01T07:39:48.345Z,95.20
2018-12-01T07:42:17.479Z,95.50
2018-12-01T07:44:45.608Z,95.50
2018-12-01T07:47:13.219Z,95.40
2018-12-01T07:49:40.832Z,95.40
2018-12-01T07:52:08.442Z,95.30
2018-12-01T07:54:35.992Z,95.10
2018-12-01T07:57:03.724Z,95.20
2018-12-01T07:59:32.045Z,95.10
2018-12-01T08:01:59.750Z,95.10
2018-12-01T08:04:27.397Z,95.20
2018-12-01T08:06:55.032Z,95.50
2018-12-01T08:09:22.582Z,95.50
2018-12-01T08:11:53.210Z,95.50
2018-12-01T08:14:20.922Z,95.80
2018-12-01T08:16:48.630Z,96.60
2018-12-01T08:19:16.493Z,98.10
2018-12-01T08:21:44.257Z,98.40
2018-12-01T08:24:12.824Z,98.30
2018-12-01T08:26:41.144Z,98.20
2018-12-01T08:29:08.683Z,98.00
2018-12-01T08:31:36.434Z,97.80
2018-12-01T08:34:04.049Z,97.50
2018-12-01T08:36:31.668Z,97.20
2018-12-01T08:38:59.294Z,97.20
2018-12-01T08:41:26.893Z,97.00
2018-12-01T08:43:55.039Z,97.00
2018-12-01T08:46:22.640Z,97.10
2018-12-01T08:48:50.362Z,97.10
2018-12-01T08:51:18.055Z,97.10
2018-12-01T08:53:46.149Z,97.00
2018-12-01T08:56:13.906Z,96.60
2018-12-01T08:58:41.565Z,96.50
2018-12-01T09:01:09.158Z,96.50
2018-12-01T09:03:36.773Z,96.60
2018-12-01T09:06:04.635Z,96.60
2018-12-01T09:08:32.686Z,96.80
2018-12-01T09:11:00.251Z,97.20
2018-12-01T09:13:27.832Z,97.30
2018-12-01T09:15:55.478Z,97.60
2018-12-01T09:18:23.957Z,97.40
2018-12-01T09:20:53.241Z,97.40
2018-12-01T09:23:20.909Z,97.90
2018-12-01T09:25:48.514Z,97.70
2018-12-01T09:28:16.161Z,97.60
2018-12-01T09:30:43.726Z,97.30
2018-12-01T09:33:11.381Z,97.30
2018-12-01T09:35:39.038Z,97.30
2018-12-01T09:38:07.208Z,97.50
2018-12-01T09:40:35.103Z,97.40
2018-12-01T09:43:02.729Z,97.70
2018-12-01T09:45:30.361Z,97.50
2018-12-01T09:47:57.969Z,97.60
2018-12-01T09:50:25.881Z,97.00
2018-12-01T09:52:54.786Z,97.20
2018-12-01T09:55:23.658Z,97.70
2018-12-01T09:57:51.852Z,97.50
2018-12-01T10:00:27.578Z,97.30
2018-12-01T10:02:55.246Z,97.20
2018-12-01T10:05:22.849Z,97.10
2018-12-01T10:07:50.497Z,97.10
2018-12-01T10:10:20.295Z,96.70
2018-12-01T10:12:49.501Z,97.00
2018-12-01T10:15:23.893Z,96.80
2018-12-01T10:17:51.053Z,96.60
2018-12-01T10:20:20.178Z,96.80
2018-12-01T10:22:47.753Z,96.90
2018-12-01T10:25:16.391Z,96.90
2018-12-01T10:27:44.332Z,96.30
2018-12-01T10:30:14.228Z,96.10
2018-12-01T10:32:41.990Z,96.20
2018-12-01T10:35:11.117Z,96.40
2018-12-01T10:37:38.741Z,96.60
2018-12-01T10:40:08.186Z,96.50
2018-12-01T10:42:35.813Z,96.60
2018-12-01T10:45:05.208Z,96.50
2018-12-01T10:47:32.912Z,96.30
2018-12-01T10:50:00.576Z,95.90
2018-12-01T10:52:28.364Z,95.70
2018-12-01T10:54:56.041Z,95.70
2018-12-01T10:57:24.341Z,95.90
2018-12-01T10:59:51.437Z,96.00
2018-12-01T11:02:24.614Z,95.60
2018-12-01T11:04:52.564Z,95.50
2018-12-01T11:07:20.184Z,96.00
2018-12-01T11:09:47.753Z,96.00
2018-12-01T11:12:15.364Z,95.80
2018-12-01T11:14:43.085Z,95.70
2018-12-01T11:17:10.943Z,95.20
2018-12-01T11:19:38.538Z,95.30
2018-12-01T11:22:06.489Z,95.10
2018-12-01T11:24:34.107Z,95.20
2018-12-01T11:27:01.726Z,95.50
2018-12-01T11:29:29.364Z,95.40
2018-12-01T11:31:57.033Z,95.10
2018-12-01T11:34:24.657Z,94.70
2018-12-01T11:36:52.681Z,95.20
2018-12-01T11:39:20.304Z,94.80
2018-12-01T11:41:48.008Z,94.90
2018-12-01T11:44:15.847Z,94.70
2018-12-01T11:46:43.567Z,94.70
2018-12-01T11:49:11.666Z,94.40
2018-12-01T11:51:39.280Z,94.50
2018-12-01T11:54:06.899Z,94.60
2018-12-01T11:56:35.149Z,94.10
2018-12-01T11:59:02.818Z,94.40
2018-12-01T12:01:30.459Z,93.60
2018-12-01T12:03:58.187Z,93.90
2018-12-01T12:06:25.827Z,93.60
2018-12-01T12:08:53.475Z,93.60
2018-12-01T12:11:21.181Z,93.60
2018-12-01T12:13:49.071Z,93.60
2018-12-01T12:16:18.437Z,92.60
2018-12-01T12:18:49.212Z,92.90
2018-12-01T12:21:17.305Z,92.60
2018-12-01T12:23:45.326Z,92.90
2018-12-01T12:26:13.536Z,92.60
2018-12-01T12:28:41.660Z,92.20
2018-12-01T12:31:09.886Z,92.50
2018-12-01T12:33:37.996Z,92.00
2018-12-01T12:36:06.201Z,91.70
2018-12-01T12:38:34.239Z,91.90
2018-12-01T12:41:02.334Z,91.60
2018-12-01T12:43:30.424Z,91.40
2018-12-01T12:45:58.345Z,90.70
2018-12-01T12:48:26.325Z,90.70
2018-12-01T12:50:54.330Z,90.00
2018-12-01T12:53:22.420Z,89.50
2018-12-01T12:55:50.493Z,89.70
2018-12-01T12:58:18.636Z,89.80
2018-12-01T13:00:46.662Z,89.40
2018-12-01T13:03:14.749Z,89.40
2018-12-01T13:05:44.110Z,88.70
2018-12-01T13:08:17.531Z,88.80
2018-12-01T13:10:45.565Z,88.80
2018-12-01T13:13:13.585Z,88.40
2018-12-01T13:15:41.731Z,87.60
2018-12-01T13:18:11.117Z,87.20
2018-12-01T13:20:39.453Z,87.20
2018-12-01T13:23:08.055Z,87.50
2018-12-01T13:25:36.704Z,87.50
2018-12-01T13:28:09.018Z,87.60
2018-12-01T13:30:40.665Z,87.60
2018-12-01T13:33:08.787Z,87.00
2018-12-01T13:35:36.810Z,87.10
2018-12-01T13:38:05.423Z,86.80
2018-12-01T13:40:33.400Z,86.70
2018-12-01T13:43:01.481Z,86.20
2018-12-01T13:45:29.411Z,85.80
2018-12-01T13:47:57.433Z,85.50
2018-12-01T13:50:25.454Z,85.60
2018-12-01T13:52:57.658Z,85.90
2018-12-01T13:55:25.755Z,85.80
2018-12-01T13:57:53.839Z,85.10
2018-12-01T14:00:23.149Z,85.30
2018-12-01T14:02:51.152Z,85.60
2018-12-01T14:05:19.819Z,86.10
2018-12-01T14:07:47.751Z,85.40
2018-12-01T14:10:23.658Z,85.50
2018-12-01T14:12:52.667Z,85.10
2018-12-01T14:15:21.448Z,85.10
2018-12-01T14:17:49.041Z,84.80
2018-12-01T14:20:17.204Z,85.00
2018-12-01T14:22:45.671Z,85.00
2018-12-01T14:25:14.371Z,84.70
2018-12-01T14:27:44.403Z,84.60
2018-12-01T14:30:14.022Z,84.90
2018-12-01T14:35:38.498Z,84.70
2018-12-01T14:38:11.265Z,84.60
2018-12-01T14:40:39.887Z,84.10
2018-12-01T14:43:07.766Z,84.40
2018-12-01T14:45:35.482Z,84.70
2018-12-01T14:48:03.077Z,84.50
2018-12-01T14:50:30.711Z,85.00
2018-12-01T14:52:58.467Z,84.40
2018-12-01T14:55:26.259Z,84.40
2018-12-01T14:57:53.932Z,84.60
2018-12-01T15:00:23.444Z,84.10
2018-12-01T15:02:51.891Z,84.40
2018-12-01T15:05:19.517Z,84.20
2018-12-01T15:07:47.654Z,84.10
2018-12-01T15:10:19.859Z,84.40
2018-12-01T15:12:47.455Z,83.80
2018-12-01T15:15:16.286Z,83.70
2018-12-01T15:17:43.873Z,83.30
2018-12-01T15:20:19.063Z,83.40
2018-12-01T15:22:47.791Z,83.90
2018-12-01T15:25:16.478Z,84.10
2018-12-01T15:27:44.149Z,84.40
2018-12-01T15:30:16.492Z,84.70
2018-12-01T15:32:56.247Z,85.00
2018-12-01T15:35:23.875Z,85.30
2018-12-01T15:37:51.507Z,85.10
2018-12-01T15:40:19.442Z,85.40
2018-12-01T15:42:47.179Z,85.30
2018-12-01T15:45:16.939Z,85.50
2018-12-01T15:47:44.565Z,85.50
2018-12-01T15:50:13.449Z,85.60
2018-12-01T15:52:41.277Z,85.90
2018-12-01T15:55:10.255Z,86.30
2018-12-01T15:57:37.891Z,86.50
2018-12-01T16:00:13.787Z,86.50
2018-12-01T16:02:41.538Z,86.70
2018-12-01T16:05:10.078Z,86.80
2018-12-01T16:07:37.862Z,86.90
2018-12-01T16:10:07.475Z,87.20
2018-12-01T16:12:35.095Z,87.10
2018-12-01T16:15:02.684Z,87.10
2018-12-01T16:17:30.293Z,87.30
2018-12-01T16:19:57.882Z,87.30
2018-12-01T16:22:25.502Z,87.20
2018-12-01T16:24:53.187Z,87.30
2018-12-01T16:27:21.618Z,87.40
2018-12-01T16:29:48.607Z,87.40
2018-12-01T16:32:16.216Z,87.60
2018-12-01T16:34:43.864Z,87.40
2018-12-01T16:37:11.503Z,87.50
2018-12-01T16:39:39.100Z,87.10
2018-12-01T16:42:07.517Z,87.10
2018-12-01T16:44:35.343Z,87.30
2018-12-01T16:47:02.991Z,87.30
2018-12-01T16:49:30.559Z,87.30
2018-12-01T16:51:58.193Z,87.30
2018-12-01T16:54:26.114Z,87.30
2018-12-01T16:56:53.775Z,87.40
2018-12-01T16:59:21.345Z,87.60
2018-12-01T17:01:48.969Z,87.40
2018-12-01T17:04:16.515Z,87.20
2018-12-01T17:06:44.096Z,87.50
2018-12-01T17:09:11.716Z,87.30
2018-12-01T17:11:39.362Z,87.40
2018-12-01T17:14:07.852Z,87.40
2018-12-01T17:16:35.492Z,87.20
2018-12-01T17:19:03.118Z,87.20
2018-12-01T17:21:30.691Z,87.40
2018-12-01T17:23:58.291Z,87.50
2018-12-01T17:26:25.949Z,87.70
2018-12-01T17:28:53.546Z,87.70
2018-12-01T17:31:21.182Z,87.40
2018-12-01T17:33:48.825Z,87.50
2018-12-01T17:36:16.371Z,87.40
2018-12-01T17:38:44.044Z,87.70
2018-12-01T17:41:14.822Z,87.70
2018-12-01T17:43:48.501Z,87.70
2018-12-01T17:46:16.172Z,87.90
2018-12-01T17:48:43.763Z,87.90
2018-12-01T17:51:11.414Z,88.50
2018-12-01T17:53:39.151Z,88.40
2018-12-01T17:56:06.801Z,88.30
2018-12-01T17:58:34.520Z,88.60
2018-12-01T18:01:02.153Z,88.60
2018-12-01T18:03:29.743Z,88.90
2018-12-01T18:05:57.391Z,89.00
2018-12-01T18:08:24.929Z,89.10
2018-12-01T18:10:53.574Z,89.40
2018-12-01T18:13:21.758Z,89.40
2018-12-01T18:15:49.394Z,89.60
2018-12-01T18:18:17.027Z,89.60
2018-12-01T18:20:44.652Z,89.60
2018-12-01T18:23:15.405Z,89.90
2018-12-01T18:25:46.500Z,89.90
2018-12-01T18:28:18.680Z,89.90
2018-12-01T18:30:46.283Z,89.90
2018-12-01T18:33:32.809Z,90.00
2018-12-01T18:36:00.314Z,90.20
2018-12-01T18:38:27.905Z,90.30
2018-12-01T18:40:55.602Z,90.30
2018-12-01T18:43:23.235Z,90.20
2018-12-01T18:45:52.533Z,90.40
2018-12-01T18:48:20.127Z,90.10
2018-12-01T18:50:47.678Z,90.30
2018-12-01T18:53:15.443Z,90.10
2018-12-01T18:55:47.213Z,90.20
2018-12-01T18:58:14.885Z,90.10
2018-12-01T19:00:46.014Z,90.20
2018-12-01T19:03:13.682Z,90.40
2018-12-01T19:05:41.255Z,90.20
2018-12-01T19:08:09.175Z,90.20
2018-12-01T19:10:36.845Z,90.20
2018-12-01T19:13:05.380Z,90.20
2018-12-01T19:15:33.055Z,90.00
2018-12-01T19:18:00.674Z,90.00
2018-12-01T19:20:28.389Z,90.00
2018-12-01T19:22:55.989Z,89.90
2018-12-01T19:25:23.630Z,89.80
2018-12-01T19:27:52.402Z,89.90
2018-12-01T19:30:20.818Z,89.60
2018-12-01T19:32:51.693Z,89.70
2018-12-01T19:35:19.327Z,89.60
2018-12-01T19:37:49.140Z,89.80
2018-12-01T19:40:18.946Z,89.20
2018-12-01T19:42:46.545Z,89.20
2018-12-01T19:45:14.335Z,89.00
2018-12-01T19:47:42.054Z,89.00
2018-12-01T19:50:18.222Z,88.90
2018-12-01T19:52:45.876Z,89.30
2018-12-01T19:55:13.962Z,89.20
2018-12-01T19:57:42.039Z,89.30
2018-12-01T20:00:14.860Z,89.30
2018-12-01T20:02:42.525Z,89.30
2018-12-01T20:05:11.525Z,88.90
2018-12-01T20:07:39.131Z,89.30
2018-12-01T20:10:14.184Z,89.10
2018-12-01T20:12:43.317Z,89.20
2018-12-01T20:15:15.690Z,88.90
2018-12-01T20:17:43.406Z,88.80
2018-12-01T20:20:11.059Z,88.90
2018-12-01T20:22:38.785Z,88.80
2018-12-01T20:25:08.761Z,88.60
2018-12-01T20:27:36.358Z,88.50
2018-12-01T20:30:07.621Z,88.80
2018-12-01T20:32:35.232Z,88.70
2018-12-01T20:35:02.891Z,88.70
2018-12-01T20:37:30.548Z,88.20
2018-12-01T20:39:58.162Z,87.90
2018-12-01T20:42:25.767Z,87.90
2018-12-01T20:44:53.338Z,87.70
2018-12-01T20:47:20.981Z,87.50
2018-12-01T20:49:48.615Z,87.80
2018-12-01T20:52:16.273Z,87.70
2018-12-01T20:54:45.217Z,87.50
2018-12-01T20:57:18.877Z,87.40
2018-12-01T20:59:46.437Z,87.40
2018-12-01T21:02:14.034Z,87.20
2018-12-01T21:04:41.595Z,87.40
2018-12-01T21:07:09.239Z,87.60
2018-12-01T21:09:36.840Z,87.30
2018-12-01T21:12:05.695Z,87.30
2018-12-01T21:14:33.280Z,87.30
2018-12-01T21:17:00.880Z,87.00
2018-12-01T21:19:28.454Z,87.00
2018-12-01T21:21:56.061Z,87.10
2018-12-01T21:24:23.668Z,86.90
2018-12-01T21:26:51.291Z,87.00
2018-12-01T21:29:18.895Z,86.80
2018-12-01T21:31:46.518Z,86.90
2018-12-01T21:34:14.142Z,86.80
2018-12-01T21:36:41.799Z,86.40
2018-12-01T21:39:09.472Z,86.40
2018-12-01T21:41:37.121Z,86.80
2018-12-01T21:44:04.873Z,86.40
2018-12-01T21:46:32.463Z,86.30
2018-12-01T21:49:00.058Z,86.10
2018-12-01T21:51:27.699Z,86.60
2018-12-01T21:53:55.393Z,86.30
2018-12-01T21:56:23.059Z,86.60
2018-12-01T21:58:50.642Z,86.70
2018-12-01T22:01:18.215Z,86.40
2018-12-01T22:03:45.844Z,85.90
2018-12-01T22:06:13.518Z,86.20
2018-12-01T22:08:41.122Z,86.40
2018-12-01T22:11:09.332Z,86.30
2018-12-01T22:13:36.940Z,86.40
2018-12-01T22:16:05.603Z,86.00
2018-12-01T22:18:33.202Z,86.30
2018-12-01T22:21:00.788Z,86.20
2018-12-01T22:23:28.911Z,86.10
2018-12-01T22:25:56.551Z,86.30
2018-12-01T22:28:24.211Z,86.40
2018-12-01T22:30:52.496Z,86.00
2018-12-01T22:33:24.543Z,86.30
2018-12-01T22:35:52.295Z,86.50
2018-12-01T22:38:19.983Z,86.30
2018-12-01T22:40:47.689Z,86.60
2018-12-01T22:43:15.255Z,86.80
2018-12-01T22:45:42.884Z,86.50
2018-12-01T22:48:13.129Z,86.40
2018-12-01T22:50:42.242Z,86.50
2018-12-01T22:53:09.950Z,86.20
2018-12-01T22:55:38.608Z,86.30
2018-12-01T22:58:09.486Z,85.90
2018-12-01T23:00:42.128Z,86.40
2018-12-01T23:03:10.685Z,86.10
2018-12-01T23:05:38.275Z,86.10
2018-12-01T23:08:09.308Z,86.20
2018-12-01T23:10:36.895Z,86.20
2018-12-01T23:13:05.192Z,85.90
2018-12-01T23:15:32.802Z,85.90
2018-12-01T23:18:00.473Z,86.20
2018-12-01T23:20:28.066Z,86.20
2018-12-01T23:22:55.717Z,85.80
2018-12-01T23:25:23.402Z,86.40
2018-12-01T23:27:51.003Z,86.10
2018-12-01T23:30:24.082Z,86.10
2018-12-01T23:32:53.217Z,86.30
2018-12-01T23:35:20.812Z,86.20
2018-12-01T23:37:48.416Z,86.20
2018-12-01T23:40:16.004Z,86.20
2018-12-01T23:42:43.624Z,86.10
2018-12-01T23:45:12.627Z,86.30
2018-12-01T23:47:40.233Z,86.10
2018-12-01T23:50:13.831Z,86.30
2018-12-01T23:52:41.914Z,85.90
2018-12-01T23:55:10.554Z,86.00
2018-12-01T23:57:38.103Z,86.00
